South Minden, Nebraska
Current Conditions -  °F | °C
As of 5:55 PM on Monday 22 Dec 2014 (Local Time) from KEAR Reporting Station
Overcast Overcast  
Wind Chill: 32°   Ceiling: 6000
Heat Index: 39°   Visibility: 10mi
Dew Point: 30°   Wind: 12mph
Humidity: 70%   Direction: 310°NW
Pressure: 29.53"   Gusts: NA
Location:  40.5009°N, 98.902°W
Report Text: KEAR 222355Z 31010KT 10SM BKN060 OVC070 04/M01 A2953 RMK AO1 10090 20040 400900010 52017
Loading
Personal Weather Stations






























Interactive Weather Map New forecast layout! Learn more

10-Day Weather Forecast

Advertisements
Track Severe Weather on mobile